Time;durP1;ratioP1;P1;durP2;ratioP2;P2;SDS_P1;SDS_P2;PMS_P1;PMS_P2;Temp;Humidity;BMP_temperature;BMP_pressure;BME280_temperature;BME280_humidity;BME280_pressure;Samples;Min_cycle;Max_cycle;Signal;HPM_P1;HPM_P2
2022/04/01 00:00:41;;;;;;;6.17;3.43;;;;;;;1.25;47.70;99878.75;4944721;29;20051;-82
2022/04/01 00:03:08;;;;;;;5.43;3.53;;;;;;;1.25;47.85;99877.88;4954218;28;20049;-80
2022/04/01 00:05:36;;;;;;;8.00;3.97;;;;;;;1.25;48.75;99883.09;4932388;28;20039;-81
2022/04/01 00:08:03;;;;;;;7.53;3.73;;;;;;;1.23;48.83;99884.81;4919874;28;20035;-80
2022/04/01 00:10:30;;;;;;;6.80;3.93;;;;;;;1.05;47.99;99881.28;4958342;28;20046;-82
2022/04/01 00:12:56;;;;;;;9.87;4.30;;;;;;;0.98;47.52;99883.81;4958752;28;20058;-80
2022/04/01 00:15:23;;;;;;;7.37;4.00;;;;;;;0.96;48.35;99875.16;4925751;28;20050;-82
2022/04/01 00:17:50;;;;;;;7.17;3.90;;;;;;;1.09;48.05;99880.44;4925846;28;20125;-80
2022/04/01 00:20:18;;;;;;;6.07;3.87;;;;;;;1.04;48.17;99873.47;4940188;28;20407;-81
2022/04/01 00:22:45;;;;;;;7.77;3.93;;;;;;;0.99;48.67;99880.34;4925844;28;20047;-81
2022/04/01 00:25:13;;;;;;;6.00;3.77;;;;;;;1.01;48.08;99889.03;4956277;28;20062;-82
2022/04/01 00:27:39;;;;;;;8.93;5.10;;;;;;;0.98;48.38;99889.91;4941320;28;20035;-82
2022/04/01 00:30:07;;;;;;;6.40;4.20;;;;;;;0.96;48.12;99888.16;4923845;28;20123;-80
2022/04/01 00:32:34;;;;;;;7.67;3.93;;;;;;;0.95;49.01;99889.88;4956336;28;20053;-80
2022/04/01 00:35:00;;;;;;;8.33;4.30;;;;;;;0.95;48.17;99894.22;4923095;28;20053;-81
2022/04/01 00:37:28;;;;;;;8.50;3.77;;;;;;;0.89;47.44;99891.56;4940079;28;20031;-81
2022/04/01 00:39:54;;;;;;;8.97;3.93;;;;;;;0.80;48.30;99894.97;4938723;28;20049;-81
2022/04/01 00:42:21;;;;;;;6.00;3.53;;;;;;;0.85;48.27;99901.09;4923893;28;20054;-80
2022/04/01 00:44:48;;;;;;;6.77;3.80;;;;;;;0.70;48.11;99896.66;4939045;28;20043;-79
2022/04/01 00:47:18;;;;;;;5.47;3.53;;;;;;;0.78;48.05;99900.19;4955628;28;20695;-80
2022/04/01 00:49:45;;;;;;;5.37;3.37;;;;;;;0.77;48.00;99901.03;4954644;28;20046;-79
2022/04/01 00:52:15;;;;;;;7.87;3.10;;;;;;;0.70;49.10;99893.19;4939477;28;20046;-80
2022/04/01 00:54:42;;;;;;;6.77;3.60;;;;;;;0.61;47.91;99898.31;4922996;28;20049;-81
2022/04/01 00:57:11;;;;;;;4.73;3.33;;;;;;;0.58;48.31;99893.94;4930423;28;20077;-79
2022/04/01 00:59:38;;;;;;;6.87;3.47;;;;;;;0.67;48.33;99893.16;4939293;28;20043;-79
2022/04/01 01:02:04;;;;;;;7.43;4.27;;;;;;;0.60;49.25;99894.00;4941880;28;20492;-80
2022/04/01 01:04:31;;;;;;;5.67;3.30;;;;;;;0.61;48.70;99896.59;4960130;28;20080;-80
2022/04/01 01:07:00;;;;;;;6.60;3.80;;;;;;;0.57;50.04;99890.47;4921897;28;20070;-82
2022/04/01 01:09:27;;;;;;;8.67;3.40;;;;;;;0.66;48.86;99896.59;4925031;28;20074;-80
2022/04/01 01:11:54;;;;;;;7.37;3.83;;;;;;;0.66;48.77;99889.69;4941700;28;20046;-80
2022/04/01 01:14:24;;;;;;;11.00;3.93;;;;;;;0.46;49.08;99891.28;4940101;28;20070;-81
2022/04/01 01:16:51;;;;;;;7.23;4.13;;;;;;;0.49;49.77;99886.94;4944582;28;20057;-80
2022/04/01 01:19:18;;;;;;;7.53;4.40;;;;;;;0.60;49.30;99881.00;4940595;28;20493;-80
2022/04/01 01:21:49;;;;;;;4.83;3.30;;;;;;;0.56;49.13;99877.47;4944209;28;20051;-82
2022/04/01 01:24:15;;;;;;;6.23;3.77;;;;;;;0.51;48.97;99884.41;4927979;28;20057;-79
2022/04/01 01:26:48;;;;;;;6.80;4.07;;;;;;;0.49;49.47;99879.16;4947669;28;20098;-82
2022/04/01 01:29:40;;;;;;;7.80;4.67;;;;;;;0.50;49.94;99867.91;4936512;29;20047;-80
2022/04/01 01:32:12;;;;;;;7.43;3.57;;;;;;;0.43;50.05;99871.34;4957675;28;20114;-80
2022/04/01 01:34:40;;;;;;;7.87;4.33;;;;;;;0.35;49.95;99861.75;4946284;28;20471;-80
2022/04/01 01:37:10;;;;;;;5.70;3.60;;;;;;;0.44;50.01;99865.28;4961562;23;20135;-77
2022/04/01 01:39:37;;;;;;;5.83;3.47;;;;;;;0.15;50.13;99872.81;5013927;28;20075;-77
2022/04/01 01:42:05;;;;;;;7.30;3.50;;;;;;;0.25;50.57;99868.56;5028577;28;20600;-77
2022/04/01 01:44:32;;;;;;;8.33;4.43;;;;;;;0.26;50.78;99867.75;5018331;28;20511;-77
2022/04/01 01:46:58;;;;;;;8.07;5.10;;;;;;;0.26;49.87;99871.22;5031673;28;20047;-77
2022/04/01 01:49:25;;;;;;;6.70;3.50;;;;;;;0.26;51.44;99867.75;5034548;28;20052;-77
2022/04/01 01:54:43;;;;;;;6.17;3.90;;;;;;;0.16;50.56;99864.16;5022372;28;20035;-77
2022/04/01 01:57:31;;;;;;;5.60;3.60;;;;;;;0.17;50.80;99862.44;5037764;28;20041;-77
2022/04/01 01:59:59;;;;;;;8.03;3.63;;;;;;;0.12;50.82;99861.53;5038339;28;20043;-76
2022/04/01 02:02:26;;;;;;;5.97;3.83;;;;;;;0.05;51.46;99857.16;5036578;28;21390;-77
2022/04/01 02:04:53;;;;;;;6.73;3.53;;;;;;;-0.01;51.29;99863.16;5054993;28;20044;-77
2022/04/01 02:07:22;;;;;;;8.20;4.10;;;;;;;0.06;51.36;99858.88;5021732;28;20413;-77
2022/04/01 02:09:51;;;;;;;7.17;3.90;;;;;;;0.06;51.07;99856.28;5071841;28;20040;-77
2022/04/01 02:12:18;;;;;;;7.23;4.00;;;;;;;0.10;51.60;99858.94;5038288;28;20044;-77
2022/04/01 02:14:44;;;;;;;7.33;3.60;;;;;;;0.10;51.10;99855.47;5045468;28;20048;-77
2022/04/01 02:17:11;;;;;;;7.47;4.20;;;;;;;0.02;51.82;99854.53;5027136;28;20043;-77
2022/04/01 02:19:38;;;;;;;8.53;3.90;;;;;;;0.02;51.92;99855.41;5045984;28;20620;-77
2022/04/01 02:22:08;;;;;;;7.53;3.77;;;;;;;-0.02;51.36;99854.50;5057926;28;20091;-77
2022/04/01 02:24:36;;;;;;;10.33;4.17;;;;;;;-0.02;51.71;99857.09;5052564;28;20406;-77
2022/04/01 02:27:03;;;;;;;9.00;4.00;;;;;;;-0.04;52.07;99863.13;5038559;28;20153;-77
2022/04/01 02:29:29;;;;;;;5.23;3.60;;;;;;;-0.10;51.74;99869.13;5037477;28;20040;-77
2022/04/01 02:31:56;;;;;;;5.97;3.17;;;;;;;-0.11;51.64;99872.56;5047950;28;20040;-77
2022/04/01 02:34:27;;;;;;;6.47;3.87;;;;;;;-0.20;52.31;99869.03;5036495;28;20058;-77
2022/04/01 02:36:57;;;;;;;7.00;3.73;;;;;;;-0.10;52.50;99861.34;5055295;28;20044;-77
2022/04/01 02:39:23;;;;;;;6.80;3.90;;;;;;;-0.16;52.72;99876.88;5047271;28;20032;-77
2022/04/01 02:41:50;;;;;;;5.80;3.00;;;;;;;-0.32;52.66;99865.47;5037171;28;20741;-77
2022/04/01 02:44:17;;;;;;;7.33;4.03;;;;;;;-0.21;53.61;99867.28;5049590;28;20036;-77
2022/04/01 02:46:45;;;;;;;5.63;3.57;;;;;;;-0.23;53.82;99884.59;5021198;28;20127;-77
2022/04/01 02:49:15;;;;;;;7.13;3.87;;;;;;;-0.35;54.50;99877.50;5036764;28;20040;-77
2022/04/01 02:51:44;;;;;;;6.03;3.17;;;;;;;-0.23;53.52;99881.97;5045885;28;20033;-77
2022/04/01 02:54:11;;;;;;;5.53;3.47;;;;;;;-0.24;54.15;99873.31;5036327;28;20040;-77
2022/04/01 02:56:39;;;;;;;6.77;3.50;;;;;;;-0.25;54.32;99879.38;5052616;28;20044;-76
2022/04/01 02:59:07;;;;;;;7.77;3.57;;;;;;;-0.40;54.73;99869.69;5020149;28;20040;-77
2022/04/01 03:01:35;;;;;;;7.67;4.13;;;;;;;-0.39;54.51;99876.63;5031666;28;20079;-77
2022/04/01 03:04:03;;;;;;;5.70;3.47;;;;;;;-0.45;54.94;99868.75;5041173;28;20048;-77
2022/04/01 03:06:30;;;;;;;5.37;3.07;;;;;;;-0.42;55.10;99875.69;5056115;28;20052;-77
2022/04/01 03:08:57;;;;;;;5.20;3.20;;;;;;;-0.41;55.37;99867.09;5055053;28;20048;-77
2022/04/01 03:11:23;;;;;;;5.43;3.30;;;;;;;-0.47;55.84;99864.41;5040277;28;20040;-77
2022/04/01 03:13:50;;;;;;;5.87;3.10;;;;;;;-0.52;56.00;99873.84;5055326;28;20063;-77
2022/04/01 03:16:17;;;;;;;5.13;3.13;;;;;;;-0.50;56.20;99877.38;5041030;28;20063;-77
2022/04/01 03:18:44;;;;;;;9.30;3.50;;;;;;;-0.54;56.34;99883.34;5052617;28;20550;-78
2022/04/01 03:21:10;;;;;;;5.97;3.30;;;;;;;-0.54;56.49;99870.38;5054278;28;20127;-77
2022/04/01 03:23:41;;;;;;;7.17;3.73;;;;;;;-0.55;57.17;99873.84;5038501;28;20037;-78
2022/04/01 03:26:08;;;;;;;6.03;3.57;;;;;;;-0.54;57.21;99879.03;5055274;28;20052;-78
2022/04/01 03:28:37;;;;;;;6.23;3.30;;;;;;;-0.58;57.14;99883.34;5070339;28;20036;-77
2022/04/01 03:31:04;;;;;;;6.70;3.23;;;;;;;-0.61;57.78;99878.09;5030054;28;20048;-77
2022/04/01 03:33:32;;;;;;;6.27;3.40;;;;;;;-0.63;57.55;99873.75;5043505;28;20044;-77
2022/04/01 03:35:59;;;;;;;6.10;3.60;;;;;;;-0.58;57.71;99872.97;5045511;28;20047;-77
2022/04/01 03:38:26;;;;;;;5.97;2.97;;;;;;;-0.61;57.33;99877.22;5052226;28;20497;-77
2022/04/01 03:40:54;;;;;;;8.67;3.43;;;;;;;-0.54;58.17;99870.38;5068321;28;20102;-77
2022/04/01 03:43:23;;;;;;;6.23;3.50;;;;;;;-0.52;57.73;99881.66;5034608;28;20045;-78
2022/04/01 03:45:52;;;;;;;5.90;3.30;;;;;;;-0.47;58.80;99891.22;5031199;28;20048;-77
2022/04/01 03:48:29;;;;;;;5.53;3.43;;;;;;;-0.42;58.54;99879.19;5057875;28;20482;-77
2022/04/01 03:50:56;;;;;;;5.93;3.17;;;;;;;-0.45;57.96;99880.88;5034255;28;20068;-78
2022/04/01 03:53:26;;;;;;;5.63;2.70;;;;;;;-0.39;58.95;99883.53;5032140;28;20040;-77
2022/04/01 03:55:58;;;;;;;5.73;3.10;;;;;;;-0.39;57.97;99879.22;5047402;28;20051;-77
2022/04/01 03:58:27;;;;;;;7.40;3.00;;;;;;;-0.34;58.57;99884.44;5024331;28;20033;-77
2022/04/01 04:00:56;;;;;;;4.90;3.23;;;;;;;-0.46;58.33;99887.78;5034912;28;20102;-77
2022/04/01 04:03:27;;;;;;;5.20;3.13;;;;;;;-0.33;58.51;99876.69;5030228;28;20695;-77
2022/04/01 04:05:54;;;;;;;8.87;3.17;;;;;;;-0.37;58.73;99877.50;5024750;28;20044;-77
2022/04/01 04:08:26;;;;;;;8.27;3.47;;;;;;;-0.28;58.55;99885.38;5036389;28;20044;-78
2022/04/01 04:10:53;;;;;;;7.97;3.00;;;;;;;-0.36;58.52;99892.22;5037881;28;20268;-77
2022/04/01 04:13:22;;;;;;;4.27;3.00;;;;;;;-0.37;58.45;99887.00;5032113;28;20095;-77
2022/04/01 04:16:12;;;;;;;4.10;3.03;;;;;;;-0.35;58.62;99885.28;5043116;28;20067;-78
2022/04/01 04:18:49;;;;;;;9.63;3.30;;;;;;;-0.39;58.89;99881.81;5039809;28;20392;-77
2022/04/01 04:21:25;;;;;;;4.80;2.80;;;;;;;-0.39;58.42;99879.22;5032585;28;20044;-77
2022/04/01 04:23:55;;;;;;;5.63;2.57;;;;;;;-0.30;58.74;99873.25;5031962;28;20040;-77
2022/04/01 04:26:35;;;;;;;4.83;2.80;;;;;;;-0.34;58.26;99874.06;5038137;28;20070;-77
2022/04/01 04:29:12;;;;;;;4.53;2.50;;;;;;;-0.36;58.70;99884.44;5041630;28;20047;-77
2022/04/01 04:31:58;;;;;;;7.00;3.00;;;;;;;-0.32;58.44;99886.22;5042529;28;20047;-78
2022/04/01 04:34:27;;;;;;;5.87;3.33;;;;;;;-0.29;58.84;99887.97;5055277;28;20044;-78
2022/04/01 04:36:56;;;;;;;11.63;3.30;;;;;;;-0.34;58.44;99887.03;5050037;28;20048;-77
2022/04/01 04:39:33;;;;;;;6.77;3.47;;;;;;;-0.29;58.65;99893.16;5037897;28;20475;-77
2022/04/01 04:42:02;;;;;;;6.80;3.00;;;;;;;-0.35;58.37;99890.50;5039949;28;20048;-77
2022/04/01 04:44:31;;;;;;;5.20;2.67;;;;;;;-0.38;58.81;99893.06;5029855;28;20133;-78
2022/04/01 04:46:59;;;;;;;5.93;2.97;;;;;;;-0.38;59.03;99893.94;5074678;28;20039;-78
2022/04/01 04:49:27;;;;;;;7.70;2.67;;;;;;;-0.33;59.39;99904.38;5048205;28;20095;-77
2022/04/01 04:51:56;;;;;;;4.03;2.67;;;;;;;-0.29;58.63;99898.34;5047218;28;20113;-77
2022/04/01 04:54:26;;;;;;;5.77;3.40;;;;;;;-0.32;58.31;99900.94;5058277;28;20033;-78
2022/04/01 04:56:53;;;;;;;6.37;3.00;;;;;;;-0.25;58.87;99909.63;5037536;28;20532;-77
2022/04/01 04:59:21;;;;;;;7.20;2.97;;;;;;;-0.27;59.18;99907.03;5053199;28;20044;-78
2022/04/01 05:01:54;;;;;;;4.13;2.60;;;;;;;-0.28;59.21;99906.16;5055441;28;20497;-77
2022/04/01 05:04:32;;;;;;;3.83;2.43;;;;;;;-0.24;58.96;99912.25;5064764;28;20474;-77
2022/04/01 05:07:21;;;;;;;5.23;2.70;;;;;;;-0.16;59.09;99908.03;5041755;28;20552;-78
2022/04/01 05:10:16;;;;;;;6.37;2.40;;;;;;;-0.16;58.71;99912.34;5064635;28;20051;-77
2022/04/01 05:12:49;;;;;;;;;;;;;;;-0.10;58.70;99914.97;5044731;28;20055;-78
2022/04/01 05:15:19;;;;;;;4.73;2.40;;;;;;;-0.03;57.96;99919.41;5033120;28;20373;-78
2022/04/01 05:18:05;;;;;;;6.93;2.60;;;;;;;0.01;58.49;99920.31;5029999;28;20401;-77
2022/04/01 05:20:35;;;;;;;5.20;3.27;;;;;;;0.01;59.27;99936.75;5017968;28;20067;-77
2022/04/01 05:23:20;;;;;;;6.83;2.83;;;;;;;0.02;59.40;99925.53;5036294;28;20048;-78
2022/04/01 05:25:56;;;;;;;5.77;2.70;;;;;;;-0.03;58.02;99930.66;5033407;28;20045;-78
2022/04/01 05:28:25;;;;;;;5.47;3.00;;;;;;;0.03;58.33;99939.38;5045090;28;20041;-78
2022/04/01 05:31:20;;;;;;;3.97;2.70;;;;;;;0.10;58.97;99941.19;5057634;28;20537;-78
2022/04/01 05:34:09;;;;;;;7.03;3.35;;;;;;;0.21;57.70;99947.34;5041666;28;20716;-77
2022/04/01 05:36:42;;;;;;;7.28;3.10;;;;;;;0.20;57.75;99943.00;5049053;28;20060;-78
2022/04/01 05:39:11;;;;;;;6.23;2.50;;;;;;;0.29;57.30;99953.47;5037352;28;20049;-78
2022/04/01 05:41:40;;;;;;;5.53;2.50;;;;;;;0.30;57.97;99946.56;5030167;28;20041;-78
2022/04/01 05:44:09;;;;;;;4.67;2.40;;;;;;;0.39;57.24;99944.91;5024986;28;20041;-77
2022/04/01 05:46:37;;;;;;;3.50;2.10;;;;;;;0.42;56.14;99947.56;5044677;28;20045;-78
2022/04/01 05:49:05;;;;;;;5.07;2.40;;;;;;;0.48;56.29;99955.38;5037348;28;20055;-78
2022/04/01 05:51:32;;;;;;;4.90;2.77;;;;;;;0.44;56.44;99942.38;5038810;28;20052;-77
2022/04/01 05:54:00;;;;;;;6.60;2.53;;;;;;;0.53;56.24;99947.66;5040110;28;20051;-77
2022/04/01 05:56:27;;;;;;;7.67;2.43;;;;;;;0.53;55.60;99951.13;5033310;28;20059;-77
2022/04/01 05:58:54;;;;;;;4.17;2.60;;;;;;;0.66;55.82;99951.19;5025757;28;20102;-77
2022/04/01 06:01:34;;;;;;;4.53;2.30;;;;;;;0.71;55.51;99952.13;5043128;28;20040;-78
2022/04/01 06:04:25;;;;;;;8.17;2.47;;;;;;;0.63;54.84;99962.44;5057714;28;20040;-78
2022/04/01 06:06:54;;;;;;;3.97;2.10;;;;;;;0.62;54.92;99957.25;5065750;28;20059;-78
2022/04/01 06:09:38;;;;;;;5.10;2.50;;;;;;;0.88;54.91;99960.91;5044939;28;20048;-78
2022/04/01 06:12:27;;;;;;;3.77;2.10;;;;;;;0.95;55.08;99957.50;5041172;28;20493;-78
2022/04/01 06:14:57;;;;;;;4.93;2.30;;;;;;;0.94;53.60;99953.16;5047474;28;20706;-77
2022/04/01 06:17:42;;;;;;;2.80;1.97;;;;;;;1.05;54.24;99956.69;5040300;28;20048;-78
2022/04/01 06:20:08;;;;;;;4.75;2.05;;;;;;;1.19;53.36;99969.81;5024593;28;20041;-77
2022/04/01 06:22:44;;;;;;;4.27;1.90;;;;;;;1.25;52.78;99971.56;5029740;28;20056;-77
2022/04/01 06:25:12;;;;;;;5.20;2.23;;;;;;;1.26;52.21;99979.41;5041035;28;20040;-78
2022/04/01 06:27:50;;;;;;;3.80;2.20;;;;;;;1.08;52.53;99963.66;5039696;28;20044;-77
2022/04/01 06:30:18;;;;;;;4.43;2.60;;;;;;;1.12;53.12;99962.81;5024088;28;20071;-78
2022/04/01 06:32:56;;;;;;;4.67;2.57;;;;;;;1.26;52.73;99969.00;5049141;28;20101;-77
2022/04/01 06:35:30;;;;;;;6.60;2.33;;;;;;;1.26;53.18;99963.78;5046363;28;20037;-78
2022/04/01 06:38:05;;;;;;;5.97;2.28;;;;;;;1.37;52.64;99963.84;5032404;28;20485;-78
2022/04/01 06:40:53;;;;;;;6.50;2.27;;;;;;;1.48;52.35;99969.97;5036337;28;20108;-77
2022/04/01 06:43:20;;;;;;;3.43;2.10;;;;;;;1.60;53.08;99970.03;5034628;28;20036;-78
2022/04/01 06:45:46;;;;;;;5.00;2.30;;;;;;;1.68;51.80;99978.75;5026396;28;20041;-78
2022/04/01 06:48:13;;;;;;;4.13;2.27;;;;;;;1.69;51.30;99967.47;5056356;28;20039;-78
2022/04/01 06:50:49;;;;;;;5.67;3.73;;;;;;;1.75;52.03;99981.38;5039401;28;20048;-78
2022/04/01 06:53:19;;;;;;;3.53;2.23;;;;;;;2.03;50.95;99983.22;5024855;28;20044;-78
2022/04/01 06:55:46;;;;;;;4.20;2.17;;;;;;;2.20;49.76;99984.13;5040053;28;20047;-78
2022/04/01 06:58:14;;;;;;;3.60;2.00;;;;;;;2.33;50.34;99984.16;5053941;28;20036;-77
2022/04/01 07:00:41;;;;;;;5.33;2.30;;;;;;;2.55;49.67;99975.50;5060461;28;20044;-78
2022/04/01 07:03:09;;;;;;;4.80;2.60;;;;;;;2.57;48.83;99993.75;5037245;28;20029;-78
2022/04/01 07:05:37;;;;;;;11.10;3.23;;;;;;;2.73;47.64;99988.56;5046560;28;20481;-78
2022/04/01 07:08:04;;;;;;;6.90;2.60;;;;;;;2.87;48.49;99998.13;5045056;28;20055;-78
2022/04/01 07:10:31;;;;;;;5.00;2.40;;;;;;;3.03;47.39;99997.25;5059885;28;20043;-75
2022/04/01 07:12:58;;;;;;;4.33;2.30;;;;;;;3.27;47.39;99996.34;5032742;28;20471;-76
2022/04/01 07:15:25;;;;;;;3.40;2.20;;;;;;;2.92;46.87;99991.16;5030404;28;20132;-76
2022/04/01 07:17:52;;;;;;;6.17;2.67;;;;;;;3.18;47.59;99994.63;5036182;28;20052;-76
2022/04/01 07:20:20;;;;;;;5.93;2.57;;;;;;;3.21;47.01;99998.97;5068983;28;20331;-75
2022/04/01 07:22:51;;;;;;;5.53;2.50;;;;;;;3.07;46.34;100007.69;5053439;28;20040;-76
2022/04/01 07:25:19;;;;;;;5.43;2.43;;;;;;;3.15;46.87;100002.47;5067939;28;20039;-77
2022/04/01 07:27:46;;;;;;;4.00;2.30;;;;;;;3.03;46.46;100010.31;5070847;28;20037;-77
2022/04/01 07:30:13;;;;;;;44.13;6.60;;;;;;;3.33;46.19;99999.81;5069593;28;20044;-77
2022/04/01 07:32:40;;;;;;;22.77;5.00;;;;;;;3.44;46.72;100001.53;5042697;28;20052;-77
2022/04/01 07:35:13;;;;;;;3.67;2.27;;;;;;;3.31;45.39;100005.94;5069371;28;20505;-77
2022/04/01 07:37:42;;;;;;;3.23;2.00;;;;;;;3.43;45.40;99998.06;4999999;28;20099;-77
2022/04/01 07:40:23;;;;;;;6.83;2.33;;;;;;;3.26;45.36;100005.91;5033663;28;20525;-77
2022/04/01 07:42:51;;;;;;;7.10;2.10;;;;;;;3.07;44.72;100004.19;5017593;28;20087;-76
2022/04/01 07:45:19;;;;;;;3.70;2.10;;;;;;;3.33;45.84;100005.03;5017279;28;20045;-77
2022/04/01 07:47:47;;;;;;;3.73;2.33;;;;;;;3.48;44.84;100009.38;5033552;28;20044;-77
2022/04/01 07:50:15;;;;;;;5.33;2.17;;;;;;;3.79;45.21;99983.16;5022498;28;20053;-75
2022/04/01 07:52:43;;;;;;;7.03;2.63;;;;;;;4.08;43.64;100006.56;5053599;28;20831;-77
2022/04/01 07:55:13;;;;;;;5.50;2.33;;;;;;;3.96;43.04;100002.25;5046971;22;20048;-80
2022/04/01 07:57:41;;;;;;;4.57;2.30;;;;;;;3.82;42.82;99997.06;5032507;28;20132;-79
2022/04/01 08:00:13;;;;;;;3.93;2.30;;;;;;;4.17;43.04;99985.59;5051639;28;20122;-81
2022/04/01 08:02:40;;;;;;;12.73;2.43;;;;;;;4.34;42.51;99990.72;5016032;28;20042;-79
2022/04/01 08:05:08;;;;;;;5.30;2.20;;;;;;;4.26;41.37;99992.50;5033047;28;20045;-83
2022/04/01 08:07:35;;;;;;;4.17;2.33;;;;;;;4.53;41.08;100003.66;5021199;28;20064;-84
2022/04/01 08:10:03;;;;;;;4.70;2.23;;;;;;;4.24;41.14;99996.00;5024083;28;20048;-84
2022/04/01 08:12:39;;;;;;;4.90;1.97;;;;;;;4.00;41.21;99998.75;5054706;28;20552;-82
2022/04/01 08:15:06;;;;;;;8.07;2.10;;;;;;;3.65;40.74;100002.34;5020481;28;20063;-83
2022/04/01 08:17:33;;;;;;;13.57;4.23;;;;;;;3.93;41.97;100008.34;5052416;28;20627;-83
2022/04/01 08:19:59;;;;;;;21.40;3.90;;;;;;;4.09;40.47;100003.94;5048696;28;20052;-82
2022/04/01 08:22:26;;;;;;;4.97;2.40;;;;;;;4.22;40.47;100005.63;5033320;28;20048;-83
2022/04/01 08:24:53;;;;;;;4.73;2.07;;;;;;;4.30;39.94;100026.50;5009620;28;20053;-82
2022/04/01 08:27:19;;;;;;;5.33;2.37;;;;;;;4.46;40.01;100007.22;5016766;28;20040;-81
2022/04/01 08:29:46;;;;;;;4.43;2.03;;;;;;;4.53;39.14;100011.50;5012658;28;20057;-84
2022/04/01 08:32:13;;;;;;;5.10;3.00;;;;;;;4.58;38.87;100015.88;4998628;28;20095;-81
2022/04/01 08:34:39;;;;;;;4.13;2.03;;;;;;;4.66;39.18;100016.69;5015400;28;20044;-82
2022/04/01 08:37:07;;;;;;;4.00;1.87;;;;;;;4.68;38.93;100009.69;5034942;28;20053;-82
2022/04/01 08:39:34;;;;;;;4.90;2.00;;;;;;;4.79;38.16;100015.69;5033635;28;20037;-80
2022/04/01 08:42:04;;;;;;;7.07;2.10;;;;;;;4.47;37.90;100013.31;5033678;28;20053;-84
2022/04/01 08:44:31;;;;;;;3.70;1.73;;;;;;;3.97;37.62;100031.88;5052374;28;20051;-80
2022/04/01 08:46:58;;;;;;;4.47;2.30;;;;;;;4.38;38.54;100036.91;5020926;28;20131;-81
2022/04/01 08:49:25;;;;;;;4.57;2.13;;;;;;;4.77;38.33;100025.31;5050537;28;20044;-81
2022/04/01 08:51:53;;;;;;;5.63;2.67;;;;;;;4.90;37.99;100024.38;5038453;28;20049;-79
2022/04/01 08:54:19;;;;;;;5.20;2.60;;;;;;;5.24;36.74;100029.31;5036452;28;20076;-81
2022/04/01 08:56:46;;;;;;;6.40;2.00;;;;;;;5.48;36.99;100023.84;5054989;28;20048;-80
2022/04/01 08:59:13;;;;;;;48.47;6.70;;;;;;;5.73;35.86;100020.97;5037465;28;20096;-81
2022/04/01 09:01:42;;;;;;;5.10;2.37;;;;;;;6.03;36.53;100030.25;5021091;28;20045;-80
2022/04/01 09:04:17;;;;;;;84.17;10.93;;;;;;;6.16;34.63;100022.22;5017282;28;20052;-81
2022/04/01 09:06:45;;;;;;;6.57;3.03;;;;;;;5.78;33.51;100032.25;5002511;28;20041;-79
2022/04/01 09:09:26;;;;;;;3.27;2.27;;;;;;;5.36;34.42;100037.06;5035835;28;20512;-80
2022/04/01 09:12:05;;;;;;;8.40;2.87;;;;;;;5.45;34.67;100029.09;5021869;28;20045;-79
2022/04/01 09:14:33;;;;;;;2.53;1.73;;;;;;;5.36;34.58;100027.44;5037754;28;20478;-79
2022/04/01 09:17:03;;;;;;;4.77;2.00;;;;;;;5.05;34.04;100028.63;5054572;28;20048;-80
2022/04/01 09:19:32;;;;;;;8.83;2.90;;;;;;;5.15;33.69;100042.50;5037152;28;20037;-79
2022/04/01 09:22:18;;;;;;;11.80;3.23;;;;;;;5.74;35.73;100033.19;5021058;28;20091;-79
2022/04/01 09:25:15;;;;;;;6.60;2.17;;;;;;;5.85;34.39;100031.31;5054046;28;20095;-80
2022/04/01 09:27:41;;;;;;;5.27;2.30;;;;;;;5.56;33.41;100034.25;5019279;28;20081;-79
2022/04/01 09:30:13;;;;;;;3.47;1.87;;;;;;;5.37;33.73;100038.78;5036185;28;20068;-82
2022/04/01 09:32:49;;;;;;;5.13;2.40;;;;;;;5.83;34.98;100048.81;5020755;28;20042;-81
2022/04/01 09:35:17;;;;;;;5.80;2.33;;;;;;;5.47;33.57;100040.47;5036555;28;20049;-81
2022/04/01 09:37:46;;;;;;;4.33;1.97;;;;;;;5.69;33.24;100061.19;5027790;28;20068;-81
2022/04/01 09:40:18;;;;;;;4.03;2.40;;;;;;;5.31;32.51;100057.19;5019948;28;20048;-80
2022/04/01 09:42:47;;;;;;;4.40;2.30;;;;;;;5.57;33.92;100042.09;5004562;28;20056;-81
2022/04/01 09:45:19;;;;;;;6.10;2.37;;;;;;;5.94;33.08;100057.44;5003265;28;20049;-81
2022/04/01 09:48:02;;;;;;;4.23;1.97;;;;;;;6.38;31.98;100033.28;5026000;28;20045;-81
2022/04/01 09:50:31;;;;;;;4.27;2.10;;;;;;;6.54;32.00;100038.34;5026702;28;20052;-82
2022/04/01 09:53:07;;;;;;;5.33;2.63;;;;;;;6.90;31.36;100045.69;5019599;28;20050;-81
2022/04/01 09:55:37;;;;;;;7.77;2.30;;;;;;;6.52;30.15;100042.75;5025732;28;20048;-82
2022/04/01 09:58:05;;;;;;;5.90;2.20;;;;;;;6.38;30.61;100043.78;5026432;28;20048;-81
2022/04/01 10:00:33;;;;;;;8.30;2.20;;;;;;;6.35;30.71;100033.34;5024682;28;20108;-82
2022/04/01 10:03:00;;;;;;;4.63;1.60;;;;;;;6.70;31.18;100024.97;5035287;28;20132;-83
2022/04/01 10:05:27;;;;;;;7.87;4.17;;;;;;;6.74;30.90;100031.94;5008758;28;20433;-83
2022/04/01 10:07:54;;;;;;;8.83;2.20;;;;;;;6.77;29.88;100031.00;5029882;28;20433;-81
2022/04/01 10:10:21;;;;;;;6.37;2.67;;;;;;;6.85;30.62;100025.63;5050170;28;20115;-82
2022/04/01 10:12:50;;;;;;;5.30;2.90;;;;;;;7.09;32.01;100021.75;5034994;28;20156;-82
2022/04/01 10:15:17;;;;;;;3.60;2.40;;;;;;;7.38;31.26;100021.25;5009322;28;20053;-81
2022/04/01 10:17:55;;;;;;;5.07;2.43;;;;;;;7.00;30.16;100017.53;5045731;28;20112;-80
2022/04/01 10:20:31;;;;;;;8.43;3.33;;;;;;;7.15;30.53;100025.16;5043570;28;20041;-80
2022/04/01 10:23:00;;;;;;;5.83;2.67;;;;;;;6.96;29.99;100023.69;5042743;28;20410;-82
2022/04/01 10:25:39;;;;;;;5.23;2.30;;;;;;;6.88;30.04;100022.94;5024650;28;20037;-80
2022/04/01 10:28:06;;;;;;;4.07;3.13;;;;;;;6.46;30.72;100020.06;5034133;28;20099;-80
2022/04/01 10:30:35;;;;;;;3.37;2.23;;;;;;;6.67;31.74;100022.41;5040542;28;20074;-81
2022/04/01 10:33:06;;;;;;;14.17;3.23;;;;;;;6.92;29.55;100025.53;5035398;28;20474;-80
2022/04/01 10:35:35;;;;;;;4.87;2.33;;;;;;;7.05;30.13;100027.03;5055224;28;20033;-80
2022/04/01 10:38:05;;;;;;;4.13;1.80;;;;;;;6.74;28.88;100025.81;5020719;28;20051;-80
2022/04/01 10:40:38;;;;;;;4.70;1.97;;;;;;;6.63;29.15;100031.19;5049471;28;20063;-81
2022/04/01 10:43:41;;;;;;;5.73;2.20;;;;;;;6.81;29.91;100016.06;5024750;28;20051;-81
2022/04/01 10:46:16;;;;;;;5.77;1.97;;;;;;;7.06;29.85;100022.66;5040090;28;20055;-80
2022/04/01 10:52:05;;;;;;;2.87;1.63;;;;;;;6.37;30.00;100021.06;5050329;28;20055;-82
2022/04/01 10:54:32;;;;;;;4.82;1.85;;;;;;;6.92;31.36;100024.66;5042025;28;20048;-81
2022/04/01 10:57:06;;;;;;;10.07;2.60;;;;;;;7.00;30.15;100020.16;5035859;28;20046;-80
2022/04/01 10:59:52;;;;;;;3.27;2.17;;;;;;;6.88;30.82;100022.94;5035061;28;20491;-81
2022/04/01 11:02:20;;;;;;;10.53;2.53;;;;;;;7.14;30.02;100018.13;5038328;28;20807;-79
2022/04/01 11:04:50;;;;;;;6.80;2.10;;;;;;;6.59;30.75;100015.53;5014004;28;20132;-80
2022/04/01 11:07:23;;;;;;;3.43;1.90;;;;;;;6.74;30.26;100020.56;5020156;28;20053;-81
2022/04/01 11:09:51;;;;;;;2.00;1.70;;;;;;;7.18;30.67;100018.97;5021410;28;20401;-80
2022/04/01 11:12:21;;;;;;;3.33;1.83;;;;;;;7.13;30.36;100026.91;5037999;28;20055;-80
2022/04/01 11:17:39;;;;;;;4.80;2.07;;;;;;;7.43;30.32;100014.16;5056017;28;20124;-82
2022/04/01 11:20:18;;;;;;;4.27;1.80;;;;;;;7.71;30.26;100025.03;5053516;28;20037;-81
2022/04/01 11:22:53;;;;;;;2.67;1.70;;;;;;;7.02;30.16;100026.25;5038976;28;20044;-81
2022/04/01 11:25:23;;;;;;;4.23;1.90;;;;;;;7.24;29.39;100019.75;5036309;28;20053;-80
2022/04/01 11:27:58;;;;;;;14.77;3.00;;;;;;;6.86;30.43;100020.34;5035553;28;20506;-80
2022/04/01 11:30:27;;;;;;;3.67;1.77;;;;;;;7.28;30.70;100012.66;5033847;28;20038;-80
2022/04/01 11:32:55;;;;;;;4.43;1.87;;;;;;;7.28;30.07;100010.91;5002525;28;20068;-80
2022/04/01 11:35:24;;;;;;;4.23;2.00;;;;;;;7.20;30.18;100007.53;5031343;28;20037;-80
2022/04/01 11:37:51;;;;;;;5.60;2.20;;;;;;;6.81;30.31;100016.06;5022650;28;20434;-81
2022/04/01 11:40:19;;;;;;;8.73;3.07;;;;;;;7.10;29.96;100007.72;5021214;28;20048;-80
2022/04/01 11:43:04;;;;;;;7.33;1.90;;;;;;;7.07;30.26;100006.03;5034057;28;20042;-83
2022/04/01 11:45:36;;;;;;;14.57;2.87;;;;;;;7.19;29.35;100011.06;5021417;28;20037;-80
2022/04/01 11:48:17;;;;;;;2.70;1.90;;;;;;;7.09;29.62;100020.00;5034703;28;20033;-80
2022/04/01 11:50:45;;;;;;;2.93;1.70;;;;;;;6.97;30.02;100009.66;5035708;28;20111;-80
2022/04/01 11:53:24;;;;;;;4.70;1.87;;;;;;;7.31;29.85;100008.25;5054832;28;20053;-82
2022/04/01 11:55:51;;;;;;;2.40;1.80;;;;;;;7.56;29.73;99992.00;5041784;28;20226;-81
2022/04/01 11:58:18;;;;;;;2.97;1.83;;;;;;;7.92;29.57;99997.47;5038968;28;20509;-80
2022/04/01 12:00:45;;;;;;;21.20;3.10;;;;;;;7.72;29.03;99993.44;5024773;28;20037;-81